sensor_id;sensor_type;location;lat;lon;timestamp;P1;durP1;ratioP1;P2;durP2;ratioP2
63032;SDS011;49121;38.932;-9.018;2022-12-16T00:02:14;7.82;;;1.58;;
63032;SDS011;49121;38.932;-9.018;2022-12-16T00:09:01;7.00;;;1.52;;
63032;SDS011;49121;38.932;-9.018;2022-12-16T00:13:02;7.55;;;1.92;;
63032;SDS011;49121;38.932;-9.018;2022-12-16T00:22:07;15.35;;;2.65;;
63032;SDS011;49121;38.932;-9.018;2022-12-16T00:26:08;12.77;;;2.20;;
63032;SDS011;49121;38.932;-9.018;2022-12-16T00:28:10;10.73;;;2.20;;
63032;SDS011;49121;38.932;-9.018;2022-12-16T00:30:12;8.77;;;2.20;;
63032;SDS011;49121;38.932;-9.018;2022-12-16T00:32:13;13.80;;;2.53;;
63032;SDS011;49121;38.932;-9.018;2022-12-16T00:36:33;23.25;;;2.92;;
63032;SDS011;49121;38.932;-9.018;2022-12-16T00:40:53;14.70;;;3.22;;
63032;SDS011;49121;38.932;-9.018;2022-12-16T00:45:16;5.22;;;1.60;;
63032;SDS011;49121;38.932;-9.018;2022-12-16T00:49:17;9.97;;;1.97;;
63032;SDS011;49121;38.932;-9.018;2022-12-16T00:53:19;9.63;;;2.27;;
63032;SDS011;49121;38.932;-9.018;2022-12-16T00:55:21;13.88;;;3.35;;
63032;SDS011;49121;38.932;-9.018;2022-12-16T00:59:44;12.43;;;2.70;;
63032;SDS011;49121;38.932;-9.018;2022-12-16T01:02:22;26.63;;;3.97;;
63032;SDS011;49121;38.932;-9.018;2022-12-16T01:04:45;8.32;;;2.30;;
63032;SDS011;49121;38.932;-9.018;2022-12-16T01:06:49;9.20;;;1.73;;
63032;SDS011;49121;38.932;-9.018;2022-12-16T01:10:54;9.87;;;1.87;;
63032;SDS011;49121;38.932;-9.018;2022-12-16T01:20:49;7.97;;;1.63;;
63032;SDS011;49121;38.932;-9.018;2022-12-16T01:22:53;7.80;;;1.92;;
63032;SDS011;49121;38.932;-9.018;2022-12-16T01:26:54;7.40;;;1.70;;
63032;SDS011;49121;38.932;-9.018;2022-12-16T01:29:32;6.78;;;2.08;;
63032;SDS011;49121;38.932;-9.018;2022-12-16T01:33:34;13.20;;;2.20;;
63032;SDS011;49121;38.932;-9.018;2022-12-16T01:40:32;14.25;;;1.98;;
63032;SDS011;49121;38.932;-9.018;2022-12-16T01:42:33;12.57;;;2.60;;
63032;SDS011;49121;38.932;-9.018;2022-12-16T01:49:04;20.92;;;6.32;;
63032;SDS011;49121;38.932;-9.018;2022-12-16T01:51:27;25.70;;;7.88;;
63032;SDS011;49121;38.932;-9.018;2022-12-16T01:53:32;16.38;;;5.50;;
63032;SDS011;49121;38.932;-9.018;2022-12-16T01:55:40;14.50;;;4.68;;
63032;SDS011;49121;38.932;-9.018;2022-12-16T01:58:02;21.85;;;3.72;;
63032;SDS011;49121;38.932;-9.018;2022-12-16T02:00:04;17.08;;;4.05;;
63032;SDS011;49121;38.932;-9.018;2022-12-16T02:02:13;13.45;;;3.85;;
63032;SDS011;49121;38.932;-9.018;2022-12-16T02:06:14;10.85;;;3.03;;
63032;SDS011;49121;38.932;-9.018;2022-12-16T02:08:15;17.08;;;3.13;;
63032;SDS011;49121;38.932;-9.018;2022-12-16T02:10:19;6.30;;;1.65;;
63032;SDS011;49121;38.932;-9.018;2022-12-16T02:24:12;6.60;;;1.48;;
63032;SDS011;49121;38.932;-9.018;2022-12-16T02:31:53;9.82;;;1.60;;
63032;SDS011;49121;38.932;-9.018;2022-12-16T02:39:24;6.15;;;1.27;;
63032;SDS011;49121;38.932;-9.018;2022-12-16T02:45:33;11.43;;;1.37;;
63032;SDS011;49121;38.932;-9.018;2022-12-16T02:47:36;8.00;;;1.40;;
63032;SDS011;49121;38.932;-9.018;2022-12-16T02:49:57;8.27;;;1.30;;
63032;SDS011;49121;38.932;-9.018;2022-12-16T02:51:58;7.45;;;1.17;;
63032;SDS011;49121;38.932;-9.018;2022-12-16T02:54:00;6.20;;;1.05;;
63032;SDS011;49121;38.932;-9.018;2022-12-16T03:03:07;11.98;;;1.85;;
63032;SDS011;49121;38.932;-9.018;2022-12-16T03:05:29;15.80;;;1.80;;
63032;SDS011;49121;38.932;-9.018;2022-12-16T03:07:31;9.60;;;1.23;;
63032;SDS011;49121;38.932;-9.018;2022-12-16T03:09:33;8.68;;;1.27;;
63032;SDS011;49121;38.932;-9.018;2022-12-16T03:11:37;9.98;;;1.33;;
63032;SDS011;49121;38.932;-9.018;2022-12-16T03:13:44;7.38;;;1.40;;
63032;SDS011;49121;38.932;-9.018;2022-12-16T03:15:51;11.60;;;1.75;;
63032;SDS011;49121;38.932;-9.018;2022-12-16T03:20:44;14.23;;;1.73;;
63032;SDS011;49121;38.932;-9.018;2022-12-16T03:23:07;5.43;;;1.45;;
63032;SDS011;49121;38.932;-9.018;2022-12-16T03:25:11;8.57;;;1.02;;
63032;SDS011;49121;38.932;-9.018;2022-12-16T03:29:35;7.30;;;1.35;;
63032;SDS011;49121;38.932;-9.018;2022-12-16T03:31:48;4.65;;;1.10;;
63032;SDS011;49121;38.932;-9.018;2022-12-16T03:33:56;3.75;;;1.20;;
63032;SDS011;49121;38.932;-9.018;2022-12-16T03:38:41;11.18;;;1.45;;
63032;SDS011;49121;38.932;-9.018;2022-12-16T03:43:25;5.40;;;1.17;;
63032;SDS011;49121;38.932;-9.018;2022-12-16T03:45:45;13.57;;;1.73;;
63032;SDS011;49121;38.932;-9.018;2022-12-16T03:47:51;12.50;;;1.48;;
63032;SDS011;49121;38.932;-9.018;2022-12-16T03:49:58;17.20;;;3.08;;
63032;SDS011;49121;38.932;-9.018;2022-12-16T03:51:59;12.07;;;1.33;;
63032;SDS011;49121;38.932;-9.018;2022-12-16T03:58:38;17.90;;;1.83;;
63032;SDS011;49121;38.932;-9.018;2022-12-16T04:02:40;8.60;;;1.70;;
63032;SDS011;49121;38.932;-9.018;2022-12-16T04:04:41;7.32;;;1.30;;
63032;SDS011;49121;38.932;-9.018;2022-12-16T04:08:47;13.35;;;2.10;;
63032;SDS011;49121;38.932;-9.018;2022-12-16T04:13:09;6.30;;;1.05;;
63032;SDS011;49121;38.932;-9.018;2022-12-16T04:15:29;8.77;;;1.58;;
63032;SDS011;49121;38.932;-9.018;2022-12-16T04:17:48;12.98;;;1.67;;
63032;SDS011;49121;38.932;-9.018;2022-12-16T04:20:11;15.30;;;1.60;;
63032;SDS011;49121;38.932;-9.018;2022-12-16T04:25:18;6.78;;;1.50;;
63032;SDS011;49121;38.932;-9.018;2022-12-16T04:27:21;12.82;;;2.15;;
63032;SDS011;49121;38.932;-9.018;2022-12-16T04:35:01;19.70;;;2.40;;
63032;SDS011;49121;38.932;-9.018;2022-12-16T04:37:21;12.10;;;1.77;;
63032;SDS011;49121;38.932;-9.018;2022-12-16T04:39:40;9.27;;;2.92;;
63032;SDS011;49121;38.932;-9.018;2022-12-16T04:41:59;9.07;;;1.58;;
63032;SDS011;49121;38.932;-9.018;2022-12-16T04:49:51;17.00;;;1.98;;
63032;SDS011;49121;38.932;-9.018;2022-12-16T04:52:10;15.65;;;1.77;;
63032;SDS011;49121;38.932;-9.018;2022-12-16T04:54:30;11.45;;;1.23;;
63032;SDS011;49121;38.932;-9.018;2022-12-16T04:56:51;10.75;;;1.75;;
63032;SDS011;49121;38.932;-9.018;2022-12-16T04:59:10;8.30;;;1.30;;
63032;SDS011;49121;38.932;-9.018;2022-12-16T05:01:29;17.73;;;1.42;;
63032;SDS011;49121;38.932;-9.018;2022-12-16T05:06:26;8.95;;;2.88;;
63032;SDS011;49121;38.932;-9.018;2022-12-16T05:08:45;14.23;;;2.55;;
63032;SDS011;49121;38.932;-9.018;2022-12-16T05:11:04;11.57;;;1.42;;
63032;SDS011;49121;38.932;-9.018;2022-12-16T05:13:23;9.70;;;1.63;;
63032;SDS011;49121;38.932;-9.018;2022-12-16T05:15:42;13.93;;;1.60;;
63032;SDS011;49121;38.932;-9.018;2022-12-16T05:18:14;11.25;;;1.98;;
63032;SDS011;49121;38.932;-9.018;2022-12-16T05:20:34;10.07;;;1.70;;
63032;SDS011;49121;38.932;-9.018;2022-12-16T05:22:56;26.25;;;5.68;;
63032;SDS011;49121;38.932;-9.018;2022-12-16T05:25:15;34.42;;;3.22;;
63032;SDS011;49121;38.932;-9.018;2022-12-16T05:27:34;19.75;;;2.08;;
63032;SDS011;49121;38.932;-9.018;2022-12-16T05:29:53;11.00;;;1.83;;
63032;SDS011;49121;38.932;-9.018;2022-12-16T05:32:13;14.57;;;1.83;;
63032;SDS011;49121;38.932;-9.018;2022-12-16T05:34:42;12.55;;;2.30;;
63032;SDS011;49121;38.932;-9.018;2022-12-16T05:37:01;9.68;;;1.30;;
63032;SDS011;49121;38.932;-9.018;2022-12-16T05:39:20;7.00;;;1.75;;
63032;SDS011;49121;38.932;-9.018;2022-12-16T05:41:39;8.65;;;1.20;;
63032;SDS011;49121;38.932;-9.018;2022-12-16T05:43:58;12.63;;;1.73;;
63032;SDS011;49121;38.932;-9.018;2022-12-16T05:46:17;8.10;;;1.50;;
63032;SDS011;49121;38.932;-9.018;2022-12-16T05:48:55;7.90;;;1.27;;
63032;SDS011;49121;38.932;-9.018;2022-12-16T05:51:15;8.98;;;1.65;;
63032;SDS011;49121;38.932;-9.018;2022-12-16T05:53:34;12.50;;;2.08;;
63032;SDS011;49121;38.932;-9.018;2022-12-16T05:58:31;14.82;;;1.50;;
63032;SDS011;49121;38.932;-9.018;2022-12-16T06:00:50;13.63;;;1.77;;
63032;SDS011;49121;38.932;-9.018;2022-12-16T06:03:09;10.60;;;1.30;;
63032;SDS011;49121;38.932;-9.018;2022-12-16T06:05:47;4.72;;;1.33;;
63032;SDS011;49121;38.932;-9.018;2022-12-16T06:08:06;13.32;;;1.40;;
63032;SDS011;49121;38.932;-9.018;2022-12-16T06:10:26;13.80;;;1.65;;
63032;SDS011;49121;38.932;-9.018;2022-12-16T06:20:57;11.70;;;1.25;;
63032;SDS011;49121;38.932;-9.018;2022-12-16T06:26:15;6.07;;;2.40;;
63032;SDS011;49121;38.932;-9.018;2022-12-16T06:28:48;12.93;;;1.50;;
63032;SDS011;49121;38.932;-9.018;2022-12-16T06:31:08;4.78;;;1.40;;
63032;SDS011;49121;38.932;-9.018;2022-12-16T06:39:58;12.23;;;1.13;;
63032;SDS011;49121;38.932;-9.018;2022-12-16T06:42:55;6.88;;;1.27;;
63032;SDS011;49121;38.932;-9.018;2022-12-16T06:45:14;9.48;;;1.38;;
63032;SDS011;49121;38.932;-9.018;2022-12-16T06:47:33;13.32;;;1.83;;
63032;SDS011;49121;38.932;-9.018;2022-12-16T06:49:53;9.25;;;1.15;;
63032;SDS011;49121;38.932;-9.018;2022-12-16T06:52:12;7.03;;;1.85;;
63032;SDS011;49121;38.932;-9.018;2022-12-16T06:54:31;9.77;;;1.73;;
63032;SDS011;49121;38.932;-9.018;2022-12-16T06:56:50;16.00;;;1.73;;
63032;SDS011;49121;38.932;-9.018;2022-12-16T06:59:10;6.82;;;1.13;;
63032;SDS011;49121;38.932;-9.018;2022-12-16T07:01:29;7.90;;;1.58;;
63032;SDS011;49121;38.932;-9.018;2022-12-16T07:03:48;5.50;;;1.25;;
63032;SDS011;49121;38.932;-9.018;2022-12-16T07:06:07;12.27;;;1.77;;
63032;SDS011;49121;38.932;-9.018;2022-12-16T07:08:26;6.13;;;1.13;;
63032;SDS011;49121;38.932;-9.018;2022-12-16T07:10:46;10.50;;;3.60;;
63032;SDS011;49121;38.932;-9.018;2022-12-16T07:13:05;6.00;;;1.60;;
63032;SDS011;49121;38.932;-9.018;2022-12-16T07:15:24;9.27;;;1.80;;
63032;SDS011;49121;38.932;-9.018;2022-12-16T07:17:44;4.85;;;0.85;;
63032;SDS011;49121;38.932;-9.018;2022-12-16T07:20:03;10.68;;;1.55;;
63032;SDS011;49121;38.932;-9.018;2022-12-16T07:22:23;9.43;;;1.50;;
63032;SDS011;49121;38.932;-9.018;2022-12-16T07:24:42;11.07;;;1.30;;
63032;SDS011;49121;38.932;-9.018;2022-12-16T07:27:21;5.38;;;1.40;;
63032;SDS011;49121;38.932;-9.018;2022-12-16T07:32:36;7.30;;;0.90;;
63032;SDS011;49121;38.932;-9.018;2022-12-16T07:34:55;7.07;;;1.23;;
63032;SDS011;49121;38.932;-9.018;2022-12-16T07:42:40;11.52;;;1.27;;
63032;SDS011;49121;38.932;-9.018;2022-12-16T07:45:23;10.15;;;1.02;;
63032;SDS011;49121;38.932;-9.018;2022-12-16T07:55:55;7.38;;;1.65;;
63032;SDS011;49121;38.932;-9.018;2022-12-16T07:58:14;12.20;;;1.67;;
63032;SDS011;49121;38.932;-9.018;2022-12-16T08:00:33;12.57;;;1.77;;
63032;SDS011;49121;38.932;-9.018;2022-12-16T08:02:53;17.92;;;2.67;;
63032;SDS011;49121;38.932;-9.018;2022-12-16T08:05:13;8.95;;;1.83;;
63032;SDS011;49121;38.932;-9.018;2022-12-16T08:07:32;10.05;;;1.40;;
63032;SDS011;49121;38.932;-9.018;2022-12-16T08:09:52;21.23;;;2.25;;
63032;SDS011;49121;38.932;-9.018;2022-12-16T08:12:25;11.15;;;2.22;;
63032;SDS011;49121;38.932;-9.018;2022-12-16T08:17:41;12.00;;;1.67;;
63032;SDS011;49121;38.932;-9.018;2022-12-16T08:20:06;7.35;;;1.75;;
63032;SDS011;49121;38.932;-9.018;2022-12-16T08:22:26;7.72;;;1.70;;
63032;SDS011;49121;38.932;-9.018;2022-12-16T08:30:01;12.15;;;2.78;;
63032;SDS011;49121;38.932;-9.018;2022-12-16T08:32:21;11.18;;;1.50;;
63032;SDS011;49121;38.932;-9.018;2022-12-16T08:34:43;7.78;;;1.85;;
63032;SDS011;49121;38.932;-9.018;2022-12-16T08:37:03;6.22;;;1.48;;
63032;SDS011;49121;38.932;-9.018;2022-12-16T08:39:22;9.73;;;1.27;;
63032;SDS011;49121;38.932;-9.018;2022-12-16T08:41:42;7.55;;;1.38;;
63032;SDS011;49121;38.932;-9.018;2022-12-16T08:44:01;8.38;;;1.70;;
63032;SDS011;49121;38.932;-9.018;2022-12-16T08:46:20;9.13;;;2.03;;
63032;SDS011;49121;38.932;-9.018;2022-12-16T08:48:40;9.43;;;1.95;;
63032;SDS011;49121;38.932;-9.018;2022-12-16T08:51:00;12.63;;;1.90;;
63032;SDS011;49121;38.932;-9.018;2022-12-16T08:53:21;11.52;;;2.15;;
63032;SDS011;49121;38.932;-9.018;2022-12-16T08:55:41;13.13;;;1.52;;
63032;SDS011;49121;38.932;-9.018;2022-12-16T08:58:00;11.07;;;1.30;;
63032;SDS011;49121;38.932;-9.018;2022-12-16T09:00:23;10.50;;;2.03;;
63032;SDS011;49121;38.932;-9.018;2022-12-16T09:02:45;9.98;;;1.63;;
63032;SDS011;49121;38.932;-9.018;2022-12-16T09:05:05;6.72;;;1.13;;
63032;SDS011;49121;38.932;-9.018;2022-12-16T09:07:25;10.40;;;1.87;;
63032;SDS011;49121;38.932;-9.018;2022-12-16T09:09:44;19.13;;;2.60;;
63032;SDS011;49121;38.932;-9.018;2022-12-16T09:12:03;20.05;;;4.15;;
63032;SDS011;49121;38.932;-9.018;2022-12-16T09:14:22;10.38;;;2.45;;
63032;SDS011;49121;38.932;-9.018;2022-12-16T09:16:41;16.70;;;1.95;;
63032;SDS011;49121;38.932;-9.018;2022-12-16T09:19:00;15.77;;;2.97;;
63032;SDS011;49121;38.932;-9.018;2022-12-16T09:21:20;9.38;;;1.55;;
63032;SDS011;49121;38.932;-9.018;2022-12-16T09:23:41;7.43;;;1.48;;
63032;SDS011;49121;38.932;-9.018;2022-12-16T09:26:01;11.43;;;1.80;;
63032;SDS011;49121;38.932;-9.018;2022-12-16T09:28:21;13.70;;;1.38;;
63032;SDS011;49121;38.932;-9.018;2022-12-16T09:30:49;11.88;;;1.40;;
63032;SDS011;49121;38.932;-9.018;2022-12-16T09:33:09;9.15;;;1.88;;
63032;SDS011;49121;38.932;-9.018;2022-12-16T09:35:28;6.65;;;1.20;;
63032;SDS011;49121;38.932;-9.018;2022-12-16T09:37:51;20.63;;;3.60;;
63032;SDS011;49121;38.932;-9.018;2022-12-16T09:40:12;7.25;;;2.20;;
63032;SDS011;49121;38.932;-9.018;2022-12-16T09:50:25;9.88;;;1.83;;
63032;SDS011;49121;38.932;-9.018;2022-12-16T09:52:54;13.80;;;2.15;;
63032;SDS011;49121;38.932;-9.018;2022-12-16T09:55:32;7.82;;;1.60;;
63032;SDS011;49121;38.932;-9.018;2022-12-16T09:57:58;10.27;;;1.60;;
63032;SDS011;49121;38.932;-9.018;2022-12-16T10:00:19;12.55;;;1.70;;
63032;SDS011;49121;38.932;-9.018;2022-12-16T10:02:47;13.00;;;1.73;;
63032;SDS011;49121;38.932;-9.018;2022-12-16T10:05:23;12.85;;;1.52;;
63032;SDS011;49121;38.932;-9.018;2022-12-16T10:08:13;10.02;;;1.38;;
63032;SDS011;49121;38.932;-9.018;2022-12-16T10:21:24;5.25;;;1.15;;
63032;SDS011;49121;38.932;-9.018;2022-12-16T10:24:03;5.78;;;1.92;;
63032;SDS011;49121;38.932;-9.018;2022-12-16T10:26:27;6.05;;;1.98;;
63032;SDS011;49121;38.932;-9.018;2022-12-16T10:29:12;12.10;;;2.55;;
63032;SDS011;49121;38.932;-9.018;2022-12-16T10:31:52;5.18;;;1.20;;
63032;SDS011;49121;38.932;-9.018;2022-12-16T10:34:18;9.85;;;0.93;;
63032;SDS011;49121;38.932;-9.018;2022-12-16T10:36:42;6.40;;;1.50;;
63032;SDS011;49121;38.932;-9.018;2022-12-16T10:39:08;6.25;;;1.95;;
63032;SDS011;49121;38.932;-9.018;2022-12-16T10:41:41;6.65;;;0.98;;
63032;SDS011;49121;38.932;-9.018;2022-12-16T10:44:05;8.18;;;1.08;;
63032;SDS011;49121;38.932;-9.018;2022-12-16T10:46:37;9.80;;;1.58;;
63032;SDS011;49121;38.932;-9.018;2022-12-16T10:48:56;6.05;;;1.02;;
63032;SDS011;49121;38.932;-9.018;2022-12-16T10:51:17;7.70;;;1.27;;
63032;SDS011;49121;38.932;-9.018;2022-12-16T10:53:37;6.45;;;1.35;;
63032;SDS011;49121;38.932;-9.018;2022-12-16T11:01:31;7.20;;;1.10;;
63032;SDS011;49121;38.932;-9.018;2022-12-16T11:04:00;10.48;;;1.90;;
63032;SDS011;49121;38.932;-9.018;2022-12-16T11:06:45;11.90;;;1.30;;
63032;SDS011;49121;38.932;-9.018;2022-12-16T11:09:19;8.60;;;1.05;;
63032;SDS011;49121;38.932;-9.018;2022-12-16T11:11:51;10.27;;;1.75;;
63032;SDS011;49121;38.932;-9.018;2022-12-16T11:17:24;3.78;;;0.95;;
63032;SDS011;49121;38.932;-9.018;2022-12-16T11:19:46;6.60;;;1.63;;
63032;SDS011;49121;38.932;-9.018;2022-12-16T11:22:25;6.63;;;1.33;;
63032;SDS011;49121;38.932;-9.018;2022-12-16T11:24:47;5.63;;;1.20;;
63032;SDS011;49121;38.932;-9.018;2022-12-16T11:27:23;9.98;;;1.23;;
63032;SDS011;49121;38.932;-9.018;2022-12-16T11:35:53;9.43;;;1.98;;
63032;SDS011;49121;38.932;-9.018;2022-12-16T11:38:35;8.70;;;1.35;;
63032;SDS011;49121;38.932;-9.018;2022-12-16T11:41:28;12.60;;;2.08;;
63032;SDS011;49121;38.932;-9.018;2022-12-16T11:44:06;15.45;;;1.73;;
63032;SDS011;49121;38.932;-9.018;2022-12-16T11:46:37;10.02;;;1.40;;
63032;SDS011;49121;38.932;-9.018;2022-12-16T11:49:05;3.78;;;0.98;;
63032;SDS011;49121;38.932;-9.018;2022-12-16T11:51:45;12.65;;;1.58;;
63032;SDS011;49121;38.932;-9.018;2022-12-16T11:54:16;6.65;;;1.20;;
63032;SDS011;49121;38.932;-9.018;2022-12-16T11:56:48;7.47;;;1.23;;
63032;SDS011;49121;38.932;-9.018;2022-12-16T12:01:55;9.70;;;2.15;;
63032;SDS011;49121;38.932;-9.018;2022-12-16T12:04:19;7.85;;;1.38;;
63032;SDS011;49121;38.932;-9.018;2022-12-16T12:09:20;8.05;;;1.95;;
63032;SDS011;49121;38.932;-9.018;2022-12-16T12:11:48;9.85;;;1.20;;
63032;SDS011;49121;38.932;-9.018;2022-12-16T12:14:35;4.07;;;0.98;;
63032;SDS011;49121;38.932;-9.018;2022-12-16T12:19:41;6.53;;;0.98;;
63032;SDS011;49121;38.932;-9.018;2022-12-16T12:25:09;10.77;;;1.52;;
63032;SDS011;49121;38.932;-9.018;2022-12-16T12:33:51;6.60;;;1.88;;
63032;SDS011;49121;38.932;-9.018;2022-12-16T12:38:54;9.48;;;2.25;;
63032;SDS011;49121;38.932;-9.018;2022-12-16T12:46:58;10.10;;;1.65;;
63032;SDS011;49121;38.932;-9.018;2022-12-16T12:49:35;9.20;;;1.55;;
63032;SDS011;49121;38.932;-9.018;2022-12-16T12:52:25;11.88;;;2.15;;
63032;SDS011;49121;38.932;-9.018;2022-12-16T12:54:57;9.93;;;1.90;;
63032;SDS011;49121;38.932;-9.018;2022-12-16T12:57:28;10.00;;;1.20;;
63032;SDS011;49121;38.932;-9.018;2022-12-16T12:59:51;8.75;;;1.30;;
63032;SDS011;49121;38.932;-9.018;2022-12-16T13:02:19;6.13;;;1.52;;
63032;SDS011;49121;38.932;-9.018;2022-12-16T13:04:41;6.03;;;1.10;;
63032;SDS011;49121;38.932;-9.018;2022-12-16T13:07:04;5.70;;;0.90;;
63032;SDS011;49121;38.932;-9.018;2022-12-16T13:16:54;10.90;;;1.58;;
63032;SDS011;49121;38.932;-9.018;2022-12-16T13:25:32;11.10;;;1.23;;
63032;SDS011;49121;38.932;-9.018;2022-12-16T13:28:39;11.45;;;3.05;;
63032;SDS011;49121;38.932;-9.018;2022-12-16T13:31:22;6.80;;;1.20;;
63032;SDS011;49121;38.932;-9.018;2022-12-16T13:33:48;9.88;;;1.35;;
63032;SDS011;49121;38.932;-9.018;2022-12-16T13:36:10;9.98;;;1.60;;
63032;SDS011;49121;38.932;-9.018;2022-12-16T13:38:32;6.13;;;1.13;;
63032;SDS011;49121;38.932;-9.018;2022-12-16T13:48:27;7.13;;;1.02;;
63032;SDS011;49121;38.932;-9.018;2022-12-16T13:50:54;4.28;;;1.02;;
63032;SDS011;49121;38.932;-9.018;2022-12-16T13:53:14;9.45;;;1.50;;
63032;SDS011;49121;38.932;-9.018;2022-12-16T13:55:55;5.93;;;1.33;;
63032;SDS011;49121;38.932;-9.018;2022-12-16T14:00:56;6.15;;;1.13;;
63032;SDS011;49121;38.932;-9.018;2022-12-16T14:06:03;11.15;;;1.80;;
63032;SDS011;49121;38.932;-9.018;2022-12-16T14:08:26;9.27;;;1.15;;
63032;SDS011;49121;38.932;-9.018;2022-12-16T14:10:56;4.38;;;0.90;;
63032;SDS011;49121;38.932;-9.018;2022-12-16T14:18:37;5.00;;;1.38;;
63032;SDS011;49121;38.932;-9.018;2022-12-16T14:21:16;9.10;;;1.08;;
63032;SDS011;49121;38.932;-9.018;2022-12-16T14:26:10;13.68;;;1.70;;
63032;SDS011;49121;38.932;-9.018;2022-12-16T14:28:36;14.18;;;1.77;;
63032;SDS011;49121;38.932;-9.018;2022-12-16T14:31:12;6.00;;;1.63;;
63032;SDS011;49121;38.932;-9.018;2022-12-16T14:33:34;6.70;;;1.67;;
63032;SDS011;49121;38.932;-9.018;2022-12-16T14:35:54;11.45;;;1.83;;
63032;SDS011;49121;38.932;-9.018;2022-12-16T14:40:53;12.75;;;1.80;;
63032;SDS011;49121;38.932;-9.018;2022-12-16T14:43:13;13.73;;;3.40;;
63032;SDS011;49121;38.932;-9.018;2022-12-16T14:45:38;9.20;;;2.90;;
63032;SDS011;49121;38.932;-9.018;2022-12-16T14:47:57;12.43;;;1.70;;
63032;SDS011;49121;38.932;-9.018;2022-12-16T14:50:26;13.52;;;2.25;;
63032;SDS011;49121;38.932;-9.018;2022-12-16T14:52:50;15.20;;;4.37;;
63032;SDS011;49121;38.932;-9.018;2022-12-16T14:55:32;14.60;;;1.50;;
63032;SDS011;49121;38.932;-9.018;2022-12-16T15:00:29;5.28;;;1.50;;
63032;SDS011;49121;38.932;-9.018;2022-12-16T15:02:58;7.93;;;1.98;;
63032;SDS011;49121;38.932;-9.018;2022-12-16T15:05:18;9.88;;;1.92;;
63032;SDS011;49121;38.932;-9.018;2022-12-16T15:08:03;10.18;;;2.53;;
63032;SDS011;49121;38.932;-9.018;2022-12-16T15:10:24;7.57;;;1.30;;
63032;SDS011;49121;38.932;-9.018;2022-12-16T15:12:45;15.63;;;2.63;;
63032;SDS011;49121;38.932;-9.018;2022-12-16T15:15:08;13.70;;;1.35;;
63032;SDS011;49121;38.932;-9.018;2022-12-16T15:17:43;15.88;;;2.72;;
63032;SDS011;49121;38.932;-9.018;2022-12-16T15:20:16;10.15;;;1.75;;
63032;SDS011;49121;38.932;-9.018;2022-12-16T15:22:43;10.85;;;2.00;;
63032;SDS011;49121;38.932;-9.018;2022-12-16T15:25:15;9.68;;;1.50;;
63032;SDS011;49121;38.932;-9.018;2022-12-16T15:27:40;12.95;;;1.90;;
63032;SDS011;49121;38.932;-9.018;2022-12-16T15:29:59;11.75;;;2.47;;
63032;SDS011;49121;38.932;-9.018;2022-12-16T15:32:28;11.38;;;1.52;;
63032;SDS011;49121;38.932;-9.018;2022-12-16T15:34:51;18.45;;;3.22;;
63032;SDS011;49121;38.932;-9.018;2022-12-16T15:37:20;10.57;;;1.85;;
63032;SDS011;49121;38.932;-9.018;2022-12-16T15:39:41;7.25;;;1.55;;
63032;SDS011;49121;38.932;-9.018;2022-12-16T15:42:01;10.43;;;1.73;;
63032;SDS011;49121;38.932;-9.018;2022-12-16T15:44:21;15.63;;;1.65;;
63032;SDS011;49121;38.932;-9.018;2022-12-16T15:46:46;10.85;;;1.95;;
63032;SDS011;49121;38.932;-9.018;2022-12-16T15:54:56;10.82;;;1.92;;
63032;SDS011;49121;38.932;-9.018;2022-12-16T15:59:54;11.98;;;1.88;;
63032;SDS011;49121;38.932;-9.018;2022-12-16T16:02:17;10.07;;;1.85;;
63032;SDS011;49121;38.932;-9.018;2022-12-16T16:04:39;11.88;;;2.75;;
63032;SDS011;49121;38.932;-9.018;2022-12-16T16:06:58;7.88;;;1.83;;
63032;SDS011;49121;38.932;-9.018;2022-12-16T16:09:27;19.77;;;2.90;;
63032;SDS011;49121;38.932;-9.018;2022-12-16T16:11:48;13.38;;;1.95;;
63032;SDS011;49121;38.932;-9.018;2022-12-16T16:14:07;15.18;;;2.20;;
63032;SDS011;49121;38.932;-9.018;2022-12-16T16:16:27;8.05;;;1.48;;
63032;SDS011;49121;38.932;-9.018;2022-12-16T16:18:46;7.03;;;1.67;;
63032;SDS011;49121;38.932;-9.018;2022-12-16T16:21:06;10.65;;;1.92;;
63032;SDS011;49121;38.932;-9.018;2022-12-16T16:23:25;11.98;;;3.15;;
63032;SDS011;49121;38.932;-9.018;2022-12-16T16:25:45;12.35;;;1.98;;
63032;SDS011;49121;38.932;-9.018;2022-12-16T16:28:06;11.43;;;2.03;;
63032;SDS011;49121;38.932;-9.018;2022-12-16T16:30:26;6.70;;;2.45;;
63032;SDS011;49121;38.932;-9.018;2022-12-16T16:32:46;15.43;;;3.03;;
63032;SDS011;49121;38.932;-9.018;2022-12-16T16:35:05;13.55;;;3.17;;
63032;SDS011;49121;38.932;-9.018;2022-12-16T16:37:28;10.10;;;1.58;;
63032;SDS011;49121;38.932;-9.018;2022-12-16T16:39:47;16.50;;;2.25;;
63032;SDS011;49121;38.932;-9.018;2022-12-16T16:42:08;21.45;;;3.08;;
63032;SDS011;49121;38.932;-9.018;2022-12-16T16:44:27;12.30;;;2.42;;
63032;SDS011;49121;38.932;-9.018;2022-12-16T16:46:47;14.02;;;2.42;;
63032;SDS011;49121;38.932;-9.018;2022-12-16T16:49:09;9.30;;;1.70;;
63032;SDS011;49121;38.932;-9.018;2022-12-16T16:51:30;11.65;;;2.08;;
63032;SDS011;49121;38.932;-9.018;2022-12-16T16:53:49;15.50;;;1.83;;
63032;SDS011;49121;38.932;-9.018;2022-12-16T16:56:09;13.07;;;2.00;;
63032;SDS011;49121;38.932;-9.018;2022-12-16T16:58:30;21.65;;;2.67;;
63032;SDS011;49121;38.932;-9.018;2022-12-16T17:00:52;12.73;;;2.55;;
63032;SDS011;49121;38.932;-9.018;2022-12-16T17:03:11;11.43;;;2.58;;
63032;SDS011;49121;38.932;-9.018;2022-12-16T17:05:30;12.57;;;2.17;;
63032;SDS011;49121;38.932;-9.018;2022-12-16T17:07:50;14.82;;;3.25;;
63032;SDS011;49121;38.932;-9.018;2022-12-16T17:10:09;14.23;;;2.53;;
63032;SDS011;49121;38.932;-9.018;2022-12-16T17:12:29;8.73;;;1.60;;
63032;SDS011;49121;38.932;-9.018;2022-12-16T17:14:48;7.60;;;1.67;;
63032;SDS011;49121;38.932;-9.018;2022-12-16T17:17:07;9.52;;;2.22;;
63032;SDS011;49121;38.932;-9.018;2022-12-16T17:19:27;7.95;;;1.83;;
63032;SDS011;49121;38.932;-9.018;2022-12-16T17:21:47;17.48;;;1.88;;
63032;SDS011;49121;38.932;-9.018;2022-12-16T17:24:06;15.85;;;2.95;;
63032;SDS011;49121;38.932;-9.018;2022-12-16T17:26:26;10.55;;;3.13;;
63032;SDS011;49121;38.932;-9.018;2022-12-16T17:28:45;10.77;;;1.98;;
63032;SDS011;49121;38.932;-9.018;2022-12-16T17:31:05;14.32;;;2.65;;
63032;SDS011;49121;38.932;-9.018;2022-12-16T17:33:25;10.87;;;2.13;;
63032;SDS011;49121;38.932;-9.018;2022-12-16T17:35:44;10.43;;;2.75;;
63032;SDS011;49121;38.932;-9.018;2022-12-16T17:38:06;17.27;;;2.58;;
63032;SDS011;49121;38.932;-9.018;2022-12-16T17:40:29;18.45;;;2.63;;
63032;SDS011;49121;38.932;-9.018;2022-12-16T17:42:48;14.38;;;2.72;;
63032;SDS011;49121;38.932;-9.018;2022-12-16T17:45:08;18.70;;;2.83;;
63032;SDS011;49121;38.932;-9.018;2022-12-16T17:50:05;16.05;;;2.63;;
63032;SDS011;49121;38.932;-9.018;2022-12-16T17:52:25;11.65;;;2.85;;
63032;SDS011;49121;38.932;-9.018;2022-12-16T17:54:44;9.95;;;3.13;;
63032;SDS011;49121;38.932;-9.018;2022-12-16T17:57:03;13.15;;;2.30;;
63032;SDS011;49121;38.932;-9.018;2022-12-16T17:59:22;12.25;;;2.63;;
63032;SDS011;49121;38.932;-9.018;2022-12-16T18:01:41;12.20;;;2.67;;
63032;SDS011;49121;38.932;-9.018;2022-12-16T18:04:01;5.90;;;2.22;;
63032;SDS011;49121;38.932;-9.018;2022-12-16T18:06:20;18.70;;;4.28;;
63032;SDS011;49121;38.932;-9.018;2022-12-16T18:08:39;19.35;;;5.88;;
63032;SDS011;49121;38.932;-9.018;2022-12-16T18:10:59;19.08;;;5.45;;
63032;SDS011;49121;38.932;-9.018;2022-12-16T18:13:18;9.93;;;3.78;;
63032;SDS011;49121;38.932;-9.018;2022-12-16T18:15:37;12.00;;;3.97;;
63032;SDS011;49121;38.932;-9.018;2022-12-16T18:17:56;11.23;;;3.40;;
63032;SDS011;49121;38.932;-9.018;2022-12-16T18:20:16;16.83;;;3.90;;
63032;SDS011;49121;38.932;-9.018;2022-12-16T18:22:35;9.35;;;2.75;;
63032;SDS011;49121;38.932;-9.018;2022-12-16T18:24:55;9.98;;;3.53;;
63032;SDS011;49121;38.932;-9.018;2022-12-16T18:27:14;10.68;;;3.65;;
63032;SDS011;49121;38.932;-9.018;2022-12-16T18:29:34;9.73;;;3.90;;